Station Historical Data
Daily Summary for February 13, 2017 Units:  English    Metric   Both
Next Day »
Daily Weekly Monthly Yearly Custom
  High: Low: Average:
Temperature: 54.2 °F 40.4 °F 46.6 °F
Dew Point: 46.3 °F 27.8 °F 39 °F
Humidity: 90% 54% 75%
Wind Speed: 9.0mph 0.0mph 0.6mph
Wind Gust: 16.0mph - -
Wind- - SSE
Pressure: 30.25 in 30.16 in -
Precipitation: 0.00 in    
Historical Graphs
 
 
Tabular Data for February 13, 2017
Time Temperature Dew Point Pressure Wind Wind Speed Wind Gust Humidity Rainfall Rate (Hourly) solar Conditions
00:01 42.7 °F 34.3 °F 30.22 in Calm     72% 0.00 in 0.00 W/m2
00:06 42.5 °F 35.5 °F 30.21 in Calm     76% 0.00 in 0.00 W/m2
00:11 42.4 °F 35.7 °F 30.22 in Calm     77% 0.00 in 0.00 W/m2
00:16 42.2 °F 35.8 °F 30.22 in Calm     78% 0.00 in 0.00 W/m2
00:21 42.2 °F 36.2 °F 30.22 in Calm     79% 0.00 in 0.00 W/m2
00:26 42.1 °F 36.7 °F 30.22 in Calm     81% 0.00 in 0.00 W/m2
00:31 42.1 °F 36.7 °F 30.21 in Calm     81% 0.00 in 0.00 W/m2
00:36 42.0 °F 36.6 °F 30.21 in Calm     81% 0.00 in 0.00 W/m2
00:41 41.9 °F 36.8 °F 30.21 in Calm     82% 0.00 in 0.00 W/m2
00:46 41.9 °F 36.8 °F 30.21 in Calm     82% 0.00 in 0.00 W/m2
00:51 41.8 °F 36.7 °F 30.21 in Calm     82% 0.00 in 0.00 W/m2
00:56 41.7 °F 36.3 °F 30.21 in Calm     81% 0.00 in 0.00 W/m2
01:01 41.7 °F 36.3 °F 30.21 in Calm     81% 0.00 in 0.00 W/m2
01:06 41.7 °F 36.0 °F 30.21 in Calm     80% 0.00 in 0.00 W/m2
01:11 41.7 °F 36.0 °F 30.21 in Calm     80% 0.00 in 0.00 W/m2
01:16 41.7 °F 34.4 °F 30.21 in Calm     75% 0.00 in 0.00 W/m2
01:21 41.7 °F 34.4 °F 30.21 in Calm     75% 0.00 in 0.00 W/m2
01:26 41.7 °F 34.0 °F 30.20 in Calm     74% 0.00 in 0.00 W/m2
01:31 41.7 °F 33.3 °F 30.20 in Calm   7.0 mph 72% 0.00 in 0.00 W/m2
01:36 41.7 °F 32.7 °F 30.20 in Calm   8.0 mph 70% 0.00 in 0.00 W/m2
01:41 41.7 °F 32.3 °F 30.20 in Calm     69% 0.00 in 0.00 W/m2
01:46 41.7 °F 31.9 °F 30.20 in Calm   7.0 mph 68% 0.00 in 0.00 W/m2
01:51 41.7 °F 31.6 °F 30.20 in Calm   9.0 mph 67% 0.00 in 0.00 W/m2
01:56 41.7 °F 29.3 °F 30.20 in ESE 6.0 mph 12.0 mph 61% 0.00 in 0.00 W/m2
02:01 41.9 °F 28.6 °F 30.20 in ESE 2.0 mph 14.0 mph 59% 0.00 in 0.00 W/m2
02:06 42.2 °F 29.3 °F 30.20 in East 9.0 mph 12.0 mph 60% 0.00 in 0.00 W/m2
02:11 42.5 °F 28.8 °F 30.19 in East 2.0 mph 16.0 mph 58% 0.00 in 0.00 W/m2
02:16 42.8 °F 29.1 °F 30.20 in East 5.0 mph 14.0 mph 58% 0.00 in 0.00 W/m2
02:21 43.0 °F 28.8 °F 30.20 in Calm   15.0 mph 57% 0.00 in 0.00 W/m2
02:26 43.2 °F 28.1 °F 30.19 in ESE 9.0 mph 13.0 mph 55% 0.00 in 0.00 W/m2
02:31 43.3 °F 28.2 °F 30.19 in Calm   16.0 mph 55% 0.00 in 0.00 W/m2
02:36 43.4 °F 28.3 °F 30.19 in ESE 9.0 mph 9.0 mph 55% 0.00 in 0.00 W/m2
02:41 43.5 °F 28.9 °F 30.19 in ESE 1.0 mph 13.0 mph 56% 0.00 in 0.00 W/m2
02:46 43.5 °F 28.9 °F 30.19 in ESE 5.0 mph 13.0 mph 56% 0.00 in 0.00 W/m2
02:51 43.5 °F 28.9 °F 30.19 in Calm   14.0 mph 56% 0.00 in 0.00 W/m2
02:56 43.6 °F 29.0 °F 30.19 in Calm   13.0 mph 56% 0.00 in 0.00 W/m2
03:01 43.6 °F 29.4 °F 30.19 in East 1.0 mph 1.0 mph 57% 0.00 in 0.00 W/m2
03:06 43.6 °F 28.1 °F 30.19 in Calm   11.0 mph 54% 0.00 in 0.00 W/m2
03:11 43.7 °F 28.2 °F 30.18 in SE 7.0 mph 12.0 mph 54% 0.00 in 0.00 W/m2
03:16 43.8 °F 29.1 °F 30.18 in Calm   13.0 mph 56% 0.00 in 0.00 W/m2
03:21 43.8 °F 30.0 °F 30.18 in SE 1.0 mph 1.0 mph 58% 0.00 in 0.00 W/m2
03:26 43.7 °F 29.9 °F 30.19 in Calm   1.0 mph 58% 0.00 in 0.00 W/m2
03:36 43.5 °F 28.9 °F 30.18 in Calm   1.0 mph 56% 0.00 in 0.00 W/m2
03:41 43.3 °F 29.1 °F 30.19 in Calm   1.0 mph 57% 0.00 in 0.00 W/m2
03:46 43.1 °F 29.3 °F 30.19 in Calm     58% 0.00 in 0.00 W/m2
03:51 42.6 °F 28.5 °F 30.19 in Calm     57% 0.00 in 0.00 W/m2
03:56 42.3 °F 28.2 °F 30.19 in Calm     57% 0.00 in 0.00 W/m2
04:01 41.9 °F 28.2 °F 30.19 in Calm     58% 0.00 in 0.00 W/m2
04:06 41.7 °F 28.9 °F 30.19 in Calm     60% 0.00 in 0.00 W/m2
04:11 41.5 °F 27.8 °F 30.19 in Calm     58% 0.00 in 0.00 W/m2
04:16 41.5 °F 29.1 °F 30.19 in Calm     61% 0.00 in 0.00 W/m2
04:21 41.3 °F 28.9 °F 30.19 in Calm     61% 0.00 in 0.00 W/m2
04:26 41.3 °F 30.4 °F 30.19 in Calm     65% 0.00 in 0.00 W/m2
04:31 41.1 °F 30.6 °F 30.19 in Calm     66% 0.00 in 0.00 W/m2
04:36 41.1 °F 31.4 °F 30.19 in Calm     68% 0.00 in 0.00 W/m2
04:41 41.1 °F 31.7 °F 30.19 in Calm     69% 0.00 in 0.00 W/m2
04:46 41.1 °F 32.4 °F 30.19 in Calm     71% 0.00 in 0.00 W/m2
04:51 41.0 °F 32.3 °F 30.19 in Calm     71% 0.00 in 0.00 W/m2
04:56 41.0 °F 33.0 °F 30.19 in Calm     73% 0.00 in 0.00 W/m2
05:01 41.0 °F 33.0 °F 30.19 in Calm     73% 0.00 in 0.00 W/m2
05:06 41.0 °F 33.0 °F 30.19 in Calm     73% 0.00 in 0.00 W/m2
05:11 41.0 °F 33.0 °F 30.19 in Calm     73% 0.00 in 0.00 W/m2
05:16 41.0 °F 32.7 °F 30.19 in Calm     72% 0.00 in 0.00 W/m2
05:21 40.9 °F 32.2 °F 30.19 in Calm   1.0 mph 71% 0.00 in 0.00 W/m2
05:26 40.9 °F 31.5 °F 30.19 in Calm     69% 0.00 in 0.00 W/m2
05:31 40.9 °F 31.5 °F 30.19 in Calm   1.0 mph 69% 0.00 in 0.00 W/m2
05:36 40.8 °F 30.7 °F 30.19 in Calm     67% 0.00 in 0.00 W/m2
05:41 40.8 °F 30.7 °F 30.19 in Calm     67% 0.00 in 0.00 W/m2
05:46 40.8 °F 30.7 °F 30.19 in Calm     67% 0.00 in 0.00 W/m2
05:51 40.8 °F 30.7 °F 30.20 in Calm     67% 0.00 in 0.00 W/m2
05:56 40.8 °F 30.7 °F 30.19 in Calm   1.0 mph 67% 0.00 in 0.00 W/m2
06:01 40.8 °F 30.7 °F 30.19 in Calm     67% 0.00 in 0.00 W/m2
06:06 40.8 °F 30.7 °F 30.19 in Calm   1.0 mph 67% 0.00 in 0.00 W/m2
06:11 40.8 °F 30.7 °F 30.19 in Calm     67% 0.00 in 0.00 W/m2
06:16 40.8 °F 30.3 °F 30.19 in Calm     66% 0.00 in 0.00 W/m2
06:21 40.9 °F 30.4 °F 30.19 in Calm   1.0 mph 66% 0.00 in 0.00 W/m2
06:26 40.9 °F 30.8 °F 30.20 in Calm     67% 0.00 in 0.00 W/m2
06:31 40.9 °F 30.4 °F 30.20 in Calm     66% 0.00 in 0.00 W/m2
06:36 40.9 °F 30.8 °F 30.20 in Calm     67% 0.00 in 0.00 W/m2
06:41 41.0 °F 30.1 °F 30.20 in Calm     65% 0.00 in 0.00 W/m2
06:46 41.0 °F 30.1 °F 30.20 in Calm     65% 0.00 in 0.00 W/m2
06:51 40.9 °F 30.1 °F 30.20 in Calm     65% 0.00 in 0.00 W/m2
06:56 40.9 °F 29.7 °F 30.20 in Calm     64% 0.00 in 0.00 W/m2
07:02 40.9 °F 30.4 °F 30.21 in Calm     66% 0.00 in 7.00 W/m2
07:07 40.8 °F 30.0 °F 30.21 in Calm     65% 0.00 in 9.00 W/m2
07:12 40.7 °F 30.6 °F 30.22 in Calm     67% 0.00 in 12.00 W/m2
07:17 40.6 °F 30.1 °F 30.22 in Calm     66% 0.00 in 16.00 W/m2
07:22 40.5 °F 30.4 °F 30.22 in Calm     67% 0.00 in 21.00 W/m2
07:27 40.5 °F 30.8 °F 30.22 in Calm     68% 0.00 in 26.00 W/m2
07:32 40.5 °F 31.1 °F 30.23 in Calm     69% 0.00 in 30.00 W/m2
07:37 40.4 °F 31.4 °F 30.23 in Calm     70% 0.00 in 35.00 W/m2
07:42 40.4 °F 31.0 °F 30.23 in Calm     69% 0.00 in 40.00 W/m2
07:47 40.4 °F 31.8 °F 30.23 in Calm     71% 0.00 in 46.00 W/m2
07:52 40.4 °F 32.4 °F 30.23 in Calm     73% 0.00 in 53.00 W/m2
07:57 40.4 °F 33.1 °F 30.23 in Calm     75% 0.00 in 63.00 W/m2
08:02 40.4 °F 33.1 °F 30.23 in Calm     75% 0.00 in 77.00 W/m2
08:07 40.5 °F 33.5 °F 30.23 in Calm     76% 0.00 in 111.00 W/m2
08:12 40.5 °F 33.5 °F 30.24 in Calm   1.0 mph 76% 0.00 in 158.00 W/m2
08:17 40.6 °F 34.0 °F 30.24 in Calm   1.0 mph 77% 0.00 in 190.00 W/m2
08:22 40.6 °F 34.3 °F 30.24 in Calm   1.0 mph 78% 0.00 in 223.00 W/m2
08:27 40.7 °F 34.4 °F 30.24 in SE 1.0 mph 1.0 mph 78% 0.00 in 246.00 W/m2
08:32 40.9 °F 34.9 °F 30.24 in Calm   2.0 mph 79% 0.00 in 251.00 W/m2
08:37 41.1 °F 35.4 °F 30.24 in SE 1.0 mph 1.0 mph 80% 0.00 in 301.00 W/m2
08:42 41.4 °F 36.0 °F 30.24 in Calm   9.0 mph 81% 0.00 in 315.00 W/m2
08:47 41.7 °F 36.3 °F 30.24 in ESE 1.0 mph 9.0 mph 81% 0.00 in 359.00 W/m2
08:52 42.1 °F 36.7 °F 30.24 in Calm   2.0 mph 81% 0.00 in 279.00 W/m2
08:57 42.6 °F 37.2 °F 30.24 in ESE 1.0 mph 2.0 mph 81% 0.00 in 350.00 W/m2
09:02 43.1 °F 37.7 °F 30.24 in ESE 2.0 mph 2.0 mph 81% 0.00 in 225.00 W/m2
09:07 43.6 °F 38.2 °F 30.24 in Calm   4.0 mph 81% 0.00 in 279.00 W/m2
09:12 44.1 °F 38.3 °F 30.24 in ESE 1.0 mph 2.0 mph 80% 0.00 in 385.00 W/m2
09:17 44.5 °F 38.1 °F 30.24 in Calm   1.0 mph 78% 0.00 in 346.00 W/m2
09:22 44.9 °F 37.8 °F 30.24 in ESE 2.0 mph 4.0 mph 76% 0.00 in 369.00 W/m2
09:27 45.3 °F 37.9 °F 30.24 in Calm   2.0 mph 75% 0.00 in 410.00 W/m2
09:32 45.6 °F 37.8 °F 30.24 in Calm   1.0 mph 74% 0.00 in 352.00 W/m2
09:37 46.1 °F 38.6 °F 30.24 in Calm   2.0 mph 75% 0.00 in 359.00 W/m2
09:42 46.5 °F 38.7 °F 30.24 in Calm   1.0 mph 74% 0.00 in 411.00 W/m2
09:48 46.7 °F 38.2 °F 30.24 in Calm   4.0 mph 72% 0.00 in 339.00 W/m2
09:53 47.0 °F 37.7 °F 30.25 in Calm     70% 0.00 in 352.00 W/m2
09:58 47.2 °F 37.9 °F 30.25 in Calm     70% 0.00 in 397.00 W/m2
10:03 47.4 °F 37.8 °F 30.25 in ESE 1.0 mph 1.0 mph 69% 0.00 in 390.00 W/m2
10:08 47.7 °F 37.7 °F 30.25 in ESE 1.0 mph 1.0 mph 68% 0.00 in 327.00 W/m2
10:18 48.2 °F 37.8 °F 30.25 in Calm   1.0 mph 67% 0.00 in 438.00 W/m2
10:23 48.5 °F 37.7 °F 30.25 in Calm   1.0 mph 66% 0.00 in 427.00 W/m2
10:28 48.8 °F 38.3 °F 30.25 in Calm   1.0 mph 67% 0.00 in 501.00 W/m2
10:33 49.1 °F 37.5 °F 30.25 in Calm   1.0 mph 64% 0.00 in 570.00 W/m2
10:38 49.4 °F 38.5 °F 30.25 in ESE 1.0 mph 4.0 mph 66% 0.00 in 529.00 W/m2
10:43 49.7 °F 38.8 °F 30.25 in Calm   2.0 mph 66% 0.00 in 563.00 W/m2
10:48 50.0 °F 39.1 °F 30.25 in ESE 1.0 mph 1.0 mph 66% 0.00 in 533.00 W/m2
10:53 50.3 °F 40.2 °F 30.25 in Calm   1.0 mph 68% 0.00 in 496.00 W/m2
10:58 50.6 °F 38.9 °F 30.25 in Calm   1.0 mph 64% 0.00 in 564.00 W/m2
11:03 50.9 °F 39.2 °F 30.24 in Calm     64% 0.00 in 626.00 W/m2
11:08 51.3 °F 40.0 °F 30.25 in SE 1.0 mph 2.0 mph 65% 0.00 in 573.00 W/m2
11:13 51.6 °F 38.6 °F 30.24 in Calm   1.0 mph 61% 0.00 in 571.00 W/m2
11:18 51.9 °F 39.7 °F 30.24 in Calm   2.0 mph 63% 0.00 in 559.00 W/m2
11:23 52.2 °F 40.0 °F 30.24 in SE 2.0 mph 4.0 mph 63% 0.00 in 547.00 W/m2
11:28 52.4 °F 39.8 °F 30.24 in Calm   1.0 mph 62% 0.00 in 536.00 W/m2
11:33 52.7 °F 40.9 °F 30.24 in Calm     64% 0.00 in 531.00 W/m2
11:43 53.0 °F 42.0 °F 30.24 in SE 1.0 mph 2.0 mph 66% 0.00 in 480.00 W/m2
11:48 53.2 °F 42.2 °F 30.23 in SE 2.0 mph 2.0 mph 66% 0.00 in 457.00 W/m2
11:53 53.3 °F 42.6 °F 30.23 in Calm   1.0 mph 67% 0.00 in 510.00 W/m2
11:58 53.4 °F 42.7 °F 30.23 in Calm   1.0 mph 67% 0.00 in 596.00 W/m2
12:03 53.5 °F 42.8 °F 30.23 in SSE 2.0 mph 5.0 mph 67% 0.00 in 691.00 W/m2
12:08 53.6 °F 42.5 °F 30.23 in SSW 2.0 mph 3.0 mph 66% 0.00 in 570.00 W/m2
12:13 53.7 °F 43.0 °F 30.23 in SW 3.0 mph 4.0 mph 67% 0.00 in 501.00 W/m2
12:18 53.9 °F 43.2 °F 30.22 in WSW 1.0 mph 1.0 mph 67% 0.00 in 394.00 W/m2
12:23 54.0 °F 43.3 °F 30.22 in Calm     67% 0.00 in 360.00 W/m2
12:28 53.9 °F 44.0 °F 30.22 in Calm   1.0 mph 69% 0.00 in 494.00 W/m2
12:33 53.9 °F 44.3 °F 30.22 in Calm   1.0 mph 70% 0.00 in 671.00 W/m2
12:38 53.7 °F 44.2 °F 30.21 in Calm   1.0 mph 70% 0.00 in 677.00 W/m2
12:43 53.7 °F 44.5 °F 30.21 in Calm   2.0 mph 71% 0.00 in 519.00 W/m2
12:48 53.8 °F 44.3 °F 30.21 in West 1.0 mph 2.0 mph 70% 0.00 in 348.00 W/m2
12:54 53.8 °F 44.3 °F 30.21 in West 1.0 mph 1.0 mph 70% 0.00 in 429.00 W/m2
12:59 53.7 °F 44.2 °F 30.21 in Calm   2.0 mph 70% 0.00 in 545.00 W/m2
13:04 53.8 °F 44.6 °F 30.21 in Calm   3.0 mph 71% 0.00 in 561.00 W/m2
13:09 53.8 °F 44.6 °F 30.20 in WNW 1.0 mph 3.0 mph 71% 0.00 in 608.00 W/m2
13:14 53.8 °F 44.6 °F 30.20 in NW 1.0 mph 2.0 mph 71% 0.00 in 420.00 W/m2
13:19 53.7 °F 44.5 °F 30.20 in Calm   2.0 mph 71% 0.00 in 452.00 W/m2
13:24 53.7 °F 44.5 °F 30.20 in NW 1.0 mph 2.0 mph 71% 0.00 in 480.00 W/m2
13:29 53.6 °F 44.4 °F 30.20 in NW 1.0 mph 3.0 mph 71% 0.00 in 496.00 W/m2
13:34 53.6 °F 44.4 °F 30.19 in NW 2.0 mph 3.0 mph 71% 0.00 in 513.00 W/m2
13:39 53.5 °F 44.3 °F 30.19 in Calm   2.0 mph 71% 0.00 in 490.00 W/m2
13:44 53.5 °F 44.3 °F 30.19 in Calm   3.0 mph 71% 0.00 in 512.00 W/m2
13:49 53.5 °F 44.3 °F 30.19 in NW 1.0 mph 3.0 mph 71% 0.00 in 522.00 W/m2
13:54 53.6 °F 44.8 °F 30.19 in WNW 3.0 mph 4.0 mph 72% 0.00 in 547.00 W/m2
13:59 53.8 °F 44.6 °F 30.19 in NW 2.0 mph 4.0 mph 71% 0.00 in 510.00 W/m2
14:04 54.0 °F 44.5 °F 30.19 in NW 1.0 mph 6.0 mph 70% 0.00 in 485.00 W/m2
14:09 54.1 °F 44.5 °F 30.19 in Calm   4.0 mph 70% 0.00 in 492.00 W/m2
14:14 54.1 °F 44.9 °F 30.18 in WNW 1.0 mph 2.0 mph 71% 0.00 in 452.00 W/m2
14:19 54.2 °F 45.0 °F 30.18 in NW 1.0 mph 3.0 mph 71% 0.00 in 448.00 W/m2
14:24 54.2 °F 44.3 °F 30.18 in WNW 3.0 mph 3.0 mph 69% 0.00 in 439.00 W/m2
14:29 54.2 °F 43.9 °F 30.18 in WNW 1.0 mph 4.0 mph 68% 0.00 in 427.00 W/m2
14:34 54.2 °F 43.9 °F 30.18 in Calm   5.0 mph 68% 0.00 in 392.00 W/m2
14:39 54.1 °F 43.8 °F 30.18 in Calm   3.0 mph 68% 0.00 in 373.00 W/m2
14:44 54.1 °F 43.8 °F 30.18 in Calm   2.0 mph 68% 0.00 in 390.00 W/m2
14:49 54.1 °F 44.2 °F 30.18 in Calm   3.0 mph 69% 0.00 in 341.00 W/m2
14:54 54.1 °F 44.5 °F 30.18 in Calm   3.0 mph 70% 0.00 in 243.00 W/m2
14:59 54.0 °F 45.2 °F 30.18 in Calm   3.0 mph 72% 0.00 in 274.00 W/m2
15:04 53.9 °F 45.5 °F 30.18 in WSW 1.0 mph 3.0 mph 73% 0.00 in 281.00 W/m2
15:09 53.8 °F 45.4 °F 30.18 in WSW 6.0 mph 8.0 mph 73% 0.00 in 258.00 W/m2
15:14 53.6 °F 45.5 °F 30.18 in Calm   2.0 mph 74% 0.00 in 237.00 W/m2
15:19 53.4 °F 45.7 °F 30.18 in West 1.0 mph 1.0 mph 75% 0.00 in 227.00 W/m2
15:24 53.2 °F 45.8 °F 30.18 in West 1.0 mph 1.0 mph 76% 0.00 in 218.00 W/m2
15:29 53.0 °F 45.7 °F 30.18 in Calm   1.0 mph 76% 0.00 in 178.00 W/m2
15:34 52.8 °F 45.8 °F 30.18 in Calm   1.0 mph 77% 0.00 in 155.00 W/m2
15:40 52.6 °F 46.0 °F 30.18 in Calm   1.0 mph 78% 0.00 in 134.00 W/m2
15:45 52.3 °F 46.0 °F 30.18 in Calm   1.0 mph 79% 0.00 in 123.00 W/m2
15:50 52.1 °F 46.1 °F 30.18 in Calm   1.0 mph 80% 0.00 in 127.00 W/m2
15:55 51.9 °F 46.3 °F 30.18 in Calm     81% 0.00 in 120.00 W/m2
16:00 51.7 °F 46.1 °F 30.18 in Calm     81% 0.00 in 111.00 W/m2
16:05 51.4 °F 46.1 °F 30.18 in Calm     82% 0.00 in 105.00 W/m2
16:10 51.1 °F 45.8 °F 30.18 in Calm     82% 0.00 in 97.00 W/m2
16:15 50.9 °F 45.9 °F 30.18 in Calm     83% 0.00 in 95.00 W/m2
16:20 50.8 °F 45.8 °F 30.18 in Calm     83% 0.00 in 90.00 W/m2
16:25 50.7 °F 46.0 °F 30.18 in Calm     84% 0.00 in 84.00 W/m2
16:30 50.6 °F 46.0 °F 30.18 in Calm     84% 0.00 in 77.00 W/m2
16:35 50.6 °F 46.0 °F 30.18 in Calm     84% 0.00 in 70.00 W/m2
16:40 50.5 °F 45.8 °F 30.18 in Calm     84% 0.00 in 63.00 W/m2
16:45 50.4 °F 45.8 °F 30.18 in Calm     84% 0.00 in 58.00 W/m2
16:50 50.4 °F 46.1 °F 30.18 in Calm     85% 0.00 in 53.00 W/m2
16:55 50.2 °F 46.2 °F 30.17 in Calm     86% 0.00 in 47.00 W/m2
17:00 50.1 °F 46.1 °F 30.17 in Calm     86% 0.00 in 40.00 W/m2
17:05 50.0 °F 46.0 °F 30.17 in Calm     86% 0.00 in 33.00 W/m2
17:10 49.9 °F 46.2 °F 30.18 in Calm     87% 0.00 in 26.00 W/m2
17:15 49.8 °F 46.1 °F 30.17 in Calm     87% 0.00 in 21.00 W/m2
17:20 49.6 °F 45.9 °F 30.18 in Calm     87% 0.00 in 18.00 W/m2
17:25 49.5 °F 45.8 °F 30.17 in Calm     87% 0.00 in 14.00 W/m2
17:30 49.3 °F 45.9 °F 30.17 in Calm     88% 0.00 in 11.00 W/m2
17:35 49.2 °F 45.8 °F 30.17 in Calm     88% 0.00 in 5.00 W/m2
17:40 49.0 °F 45.6 °F 30.17 in Calm     88% 0.00 in 0.00 W/m2
17:45 48.8 °F 45.4 °F 30.17 in Calm     88% 0.00 in 0.00 W/m2
17:50 48.8 °F 45.4 °F 30.17 in Calm     88% 0.00 in 0.00 W/m2
17:55 48.6 °F 45.2 °F 30.17 in Calm     88% 0.00 in 0.00 W/m2
18:00 48.5 °F 45.1 °F 30.17 in Calm     88% 0.00 in 0.00 W/m2
18:05 48.4 °F 45.3 °F 30.17 in Calm     89% 0.00 in 0.00 W/m2
18:10 48.3 °F 45.2 °F 30.17 in Calm     89% 0.00 in 0.00 W/m2
18:15 48.2 °F 45.1 °F 30.17 in Calm     89% 0.00 in 0.00 W/m2
18:20 48.1 °F 44.7 °F 30.17 in Calm     88% 0.00 in 0.00 W/m2
18:26 48.0 °F 44.6 °F 30.17 in Calm     88% 0.00 in 0.00 W/m2
18:31 47.9 °F 44.8 °F 30.17 in East 2.0 mph 2.0 mph 89% 0.00 in 0.00 W/m2
18:36 47.8 °F 44.7 °F 30.17 in East 1.0 mph 4.0 mph 89% 0.00 in 0.00 W/m2
18:41 47.7 °F 44.6 °F 30.17 in Calm   2.0 mph 89% 0.00 in 0.00 W/m2
18:46 47.7 °F 44.6 °F 30.17 in East 1.0 mph 4.0 mph 89% 0.00 in 0.00 W/m2
18:51 47.7 °F 44.9 °F 30.17 in Calm   5.0 mph 90% 0.00 in 0.00 W/m2
18:56 47.7 °F 44.9 °F 30.17 in Calm   4.0 mph 90% 0.00 in 0.00 W/m2
19:01 47.7 °F 44.9 °F 30.16 in ESE 1.0 mph 4.0 mph 90% 0.00 in 0.00 W/m2
19:06 47.7 °F 44.6 °F 30.16 in ESE 1.0 mph 5.0 mph 89% 0.00 in 0.00 W/m2
19:11 47.8 °F 44.7 °F 30.16 in Calm   5.0 mph 89% 0.00 in 0.00 W/m2
19:16 47.8 °F 44.7 °F 30.16 in East 1.0 mph 2.0 mph 89% 0.00 in 0.00 W/m2
19:21 47.9 °F 44.8 °F 30.17 in East 1.0 mph 1.0 mph 89% 0.00 in 0.00 W/m2
19:26 47.9 °F 44.8 °F 30.17 in Calm   2.0 mph 89% 0.00 in 0.00 W/m2
19:31 48.1 °F 45.0 °F 30.17 in Calm   4.0 mph 89% 0.00 in 0.00 W/m2
19:36 48.2 °F 45.1 °F 30.17 in Calm   2.0 mph 89% 0.00 in 0.00 W/m2
19:41 48.3 °F 45.2 °F 30.17 in East 1.0 mph 2.0 mph 89% 0.00 in 0.00 W/m2
19:46 48.3 °F 45.2 °F 30.17 in Calm   1.0 mph 89% 0.00 in 0.00 W/m2
19:51 48.3 °F 44.9 °F 30.17 in Calm     88% 0.00 in 0.00 W/m2
19:56 48.3 °F 44.9 °F 30.17 in Calm   1.0 mph 88% 0.00 in 0.00 W/m2
20:01 48.2 °F 45.1 °F 30.17 in Calm     89% 0.00 in 0.00 W/m2
20:06 48.1 °F 44.7 °F 30.17 in Calm     88% 0.00 in 0.00 W/m2
20:11 48.1 °F 44.7 °F 30.17 in Calm     88% 0.00 in 0.00 W/m2
20:16 48.0 °F 44.6 °F 30.17 in Calm     88% 0.00 in 0.00 W/m2
20:21 47.9 °F 44.5 °F 30.17 in Calm     88% 0.00 in 0.00 W/m2
20:26 47.9 °F 44.5 °F 30.17 in Calm     88% 0.00 in 0.00 W/m2
20:31 47.7 °F 44.3 °F 30.18 in Calm     88% 0.00 in 0.00 W/m2
20:36 47.6 °F 44.2 °F 30.18 in Calm     88% 0.00 in 0.00 W/m2
20:41 47.5 °F 44.1 °F 30.18 in Calm     88% 0.00 in 0.00 W/m2
20:46 47.4 °F 44.3 °F 30.18 in Calm     89% 0.00 in 0.00 W/m2
20:51 47.3 °F 44.2 °F 30.18 in Calm     89% 0.00 in 0.00 W/m2
20:56 47.2 °F 44.1 °F 30.18 in Calm     89% 0.00 in 0.00 W/m2
21:01 47.1 °F 44.0 °F 30.18 in Calm     89% 0.00 in 0.00 W/m2
21:06 47.0 °F 43.9 °F 30.18 in Calm     89% 0.00 in 0.00 W/m2
21:11 47.0 °F 44.2 °F 30.18 in Calm     90% 0.00 in 0.00 W/m2
21:16 46.9 °F 44.1 °F 30.18 in Calm     90% 0.00 in 0.00 W/m2
21:21 46.9 °F 44.1 °F 30.18 in Calm     90% 0.00 in 0.00 W/m2
21:26 46.9 °F 44.1 °F 30.18 in Calm     90% 0.00 in 0.00 W/m2
21:31 47.0 °F 44.2 °F 30.18 in Calm     90% 0.00 in 0.00 W/m2
21:36 47.0 °F 44.2 °F 30.18 in Calm     90% 0.00 in 0.00 W/m2
21:41 47.0 °F 44.2 °F 30.18 in Calm     90% 0.00 in 0.00 W/m2
21:46 47.0 °F 44.2 °F 30.18 in Calm     90% 0.00 in 0.00 W/m2
21:51 47.0 °F 44.2 °F 30.18 in Calm     90% 0.00 in 0.00 W/m2
21:56 47.0 °F 44.2 °F 30.18 in Calm     90% 0.00 in 0.00 W/m2
22:01 47.0 °F 44.2 °F 30.18 in Calm     90% 0.00 in 0.00 W/m2
22:06 46.9 °F 44.1 °F 30.18 in Calm     90% 0.00 in 0.00 W/m2
22:11 46.8 °F 44.0 °F 30.18 in Calm     90% 0.00 in 0.00 W/m2
22:16 46.7 °F 43.6 °F 30.18 in Calm     89% 0.00 in 0.00 W/m2
22:21 46.6 °F 43.5 °F 30.17 in Calm     89% 0.00 in 0.00 W/m2
22:26 46.5 °F 43.4 °F 30.17 in Calm     89% 0.00 in 0.00 W/m2
22:31 46.4 °F 43.3 °F 30.17 in East 1.0 mph 1.0 mph 89% 0.00 in 0.00 W/m2
22:36 46.4 °F 43.3 °F 30.17 in East 2.0 mph 2.0 mph 89% 0.00 in 0.00 W/m2
22:41 46.3 °F 43.2 °F 30.17 in East 1.0 mph 4.0 mph 89% 0.00 in 0.00 W/m2
22:46 46.2 °F 43.1 °F 30.17 in East 1.0 mph 4.0 mph 89% 0.00 in 0.00 W/m2
22:51 46.1 °F 43.0 °F 30.17 in ESE 2.0 mph 4.0 mph 89% 0.00 in 0.00 W/m2
22:56 46.0 °F 43.0 °F 30.17 in Calm   4.0 mph 89% 0.00 in 0.00 W/m2
23:01 45.9 °F 42.5 °F 30.17 in Calm   1.0 mph 88% 0.00 in 0.00 W/m2
23:06 45.9 °F 42.5 °F 30.17 in ESE 5.0 mph 5.0 mph 88% 0.00 in 0.00 W/m2
23:11 45.8 °F 42.2 °F 30.17 in East 1.0 mph 6.0 mph 87% 0.00 in 0.00 W/m2
23:16 45.8 °F 41.9 °F 30.17 in ESE 1.0 mph 2.0 mph 86% 0.00 in 0.00 W/m2
23:21 45.8 °F 41.9 °F 30.17 in ESE 1.0 mph 5.0 mph 86% 0.00 in 0.00 W/m2
23:26 45.8 °F 41.5 °F 30.17 in ESE 1.0 mph 8.0 mph 85% 0.00 in 0.00 W/m2
23:31 45.7 °F 41.2 °F 30.17 in East 2.0 mph 4.0 mph 84% 0.00 in 0.00 W/m2
23:36 45.6 °F 40.7 °F 30.17 in East 5.0 mph 6.0 mph 83% 0.00 in 0.00 W/m2
23:41 45.6 °F 40.1 °F 30.17 in East 5.0 mph 6.0 mph 81% 0.00 in 0.00 W/m2
23:46 45.6 °F 40.1 °F 30.17 in East 1.0 mph 1.0 mph 81% 0.00 in 0.00 W/m2
23:51 45.6 °F 40.4 °F 30.18 in ESE 5.0 mph 6.0 mph 82% 0.00 in 0.00 W/m2
23:57 45.5 °F 40.3 °F 30.18 in ESE 1.0 mph 4.0 mph 82% 0.00 in 0.00 W/m2
Foresthill Weather
 WU-history PHP script courtesy of   Juneau County Weather.
powered by Cumulus v1.9.3 (1059)
Ambient Weather VWS v14.00
Top Contact Website Map Copyright © 2007 - 2018 Foresthillweather.com Never base important decisions on this or any weather information obtained from the Internet